createdAt,value
2018-02-20T00:00:37.678Z,60.73
2018-02-20T00:03:05.113Z,57.77
2018-02-20T00:05:32.526Z,61.03
2018-02-20T00:07:59.934Z,65.93
2018-02-20T00:10:27.356Z,65.80
2018-02-20T00:12:54.756Z,67.17
2018-02-20T00:15:22.168Z,54.13
2018-02-20T00:17:49.569Z,63.30
2018-02-20T00:20:16.999Z,59.83
2018-02-20T00:22:44.411Z,65.40
2018-02-20T00:25:11.825Z,68.10
2018-02-20T00:27:39.229Z,61.50
2018-02-20T00:30:06.635Z,64.80
2018-02-20T00:32:34.049Z,62.67
2018-02-20T00:35:01.462Z,62.33
2018-02-20T00:37:28.871Z,69.53
2018-02-20T00:39:56.280Z,99.67
2018-02-20T00:42:23.701Z,58.90
2018-02-20T00:44:51.105Z,70.37
2018-02-20T00:47:18.521Z,66.63
2018-02-20T00:49:45.936Z,77.33
2018-02-20T00:52:13.355Z,63.17
2018-02-20T00:54:40.762Z,76.33
2018-02-20T00:57:08.176Z,66.60
2018-02-20T00:59:35.588Z,70.23
2018-02-20T01:02:03.952Z,66.47
2018-02-20T01:04:31.350Z,68.97
2018-02-20T01:06:58.778Z,68.77
2018-02-20T01:09:26.187Z,63.77
2018-02-20T01:11:53.611Z,66.07
2018-02-20T01:14:21.012Z,64.33
2018-02-20T01:16:48.430Z,66.97
2018-02-20T01:19:15.828Z,71.73
2018-02-20T01:21:43.245Z,58.27
2018-02-20T01:24:10.644Z,68.73
2018-02-20T01:26:38.061Z,67.40
2018-02-20T01:29:05.469Z,76.80
2018-02-20T01:31:32.880Z,73.50
2018-02-20T01:34:00.292Z,68.33
2018-02-20T01:36:27.709Z,72.80
2018-02-20T01:38:55.113Z,75.03
2018-02-20T01:41:22.534Z,77.77
2018-02-20T01:43:49.943Z,80.63
2018-02-20T01:46:17.357Z,80.70
2018-02-20T01:48:44.765Z,75.90
2018-02-20T01:51:12.189Z,68.03
2018-02-20T01:53:39.598Z,71.03
2018-02-20T01:56:07.013Z,78.20
2018-02-20T01:58:34.429Z,73.50
2018-02-20T02:01:01.848Z,62.70
2018-02-20T02:03:29.274Z,68.47
2018-02-20T02:05:56.682Z,71.77
2018-02-20T02:08:24.101Z,65.65
2018-02-20T02:10:51.523Z,67.90
2018-02-20T02:13:18.940Z,69.97
2018-02-20T02:15:46.345Z,80.03
2018-02-20T02:18:13.763Z,75.13
2018-02-20T02:20:41.173Z,63.65
2018-02-20T02:23:08.590Z,79.23
2018-02-20T02:25:35.996Z,76.97
2018-02-20T02:28:03.424Z,70.43
2018-02-20T02:30:30.822Z,74.53
2018-02-20T02:32:58.566Z,76.05
2018-02-20T02:35:25.969Z,70.20
2018-02-20T02:37:53.397Z,71.22
2018-02-20T02:40:20.820Z,71.70
2018-02-20T02:42:48.238Z,69.73
2018-02-20T02:45:15.649Z,78.87
2018-02-20T02:47:43.064Z,62.60
2018-02-20T02:50:10.466Z,69.80
2018-02-20T02:52:38.110Z,68.28
2018-02-20T02:55:05.523Z,68.70
2018-02-20T02:57:32.930Z,69.47
2018-02-20T03:00:00.344Z,75.45
2018-02-20T03:02:27.753Z,78.93
2018-02-20T03:04:55.160Z,67.10
2018-02-20T03:07:22.584Z,78.30
2018-02-20T03:09:49.994Z,78.63
2018-02-20T03:12:17.411Z,68.73
2018-02-20T03:14:44.816Z,76.93
2018-02-20T03:17:12.242Z,80.67
2018-02-20T03:19:39.645Z,76.67
2018-02-20T03:22:07.081Z,69.17
2018-02-20T03:24:34.496Z,71.73
2018-02-20T03:27:01.893Z,75.10
2018-02-20T03:29:29.310Z,68.03
2018-02-20T03:31:56.729Z,72.70
2018-02-20T03:34:24.146Z,73.27
2018-02-20T03:36:51.550Z,81.77
2018-02-20T03:39:18.969Z,66.30
2018-02-20T03:41:46.375Z,66.57
2018-02-20T03:44:13.789Z,70.13
2018-02-20T03:46:41.207Z,67.62
2018-02-20T03:49:08.634Z,71.73
2018-02-20T03:51:36.041Z,69.70
2018-02-20T03:54:03.473Z,74.15
2018-02-20T03:56:30.862Z,83.87
2018-02-20T03:58:58.281Z,75.67
2018-02-20T04:01:25.688Z,59.67
2018-02-20T04:03:53.129Z,66.77
2018-02-20T04:06:20.555Z,61.60
2018-02-20T04:08:47.980Z,65.23
2018-02-20T04:11:15.395Z,66.47
2018-02-20T04:13:42.801Z,62.40
2018-02-20T04:16:10.207Z,65.37
2018-02-20T04:18:37.618Z,68.70
2018-02-20T04:21:05.025Z,65.13
2018-02-20T04:23:32.453Z,56.87
2018-02-20T04:25:59.877Z,63.90
2018-02-20T04:28:27.290Z,71.83
2018-02-20T04:30:54.706Z,72.00
2018-02-20T04:33:22.121Z,65.63
2018-02-20T04:35:49.539Z,75.60
2018-02-20T04:38:16.949Z,67.80
2018-02-20T04:40:44.361Z,66.07
2018-02-20T04:43:11.828Z,57.30
2018-02-20T04:45:39.177Z,62.07
2018-02-20T04:48:06.597Z,67.03
2018-02-20T04:50:34.005Z,66.50
2018-02-20T04:53:01.441Z,73.17
2018-02-20T04:55:28.896Z,65.30
2018-02-20T04:57:56.830Z,69.47
2018-02-20T05:00:24.249Z,72.00
2018-02-20T05:02:51.665Z,67.90
2018-02-20T05:05:19.086Z,61.53
2018-02-20T05:07:46.503Z,67.50
2018-02-20T05:10:14.808Z,63.05
2018-02-20T05:12:42.229Z,63.43
2018-02-20T05:15:09.644Z,64.80
2018-02-20T05:17:37.048Z,64.43
2018-02-20T05:20:04.470Z,71.67
2018-02-20T05:22:31.876Z,70.90
2018-02-20T05:24:59.294Z,65.97
2018-02-20T05:27:26.699Z,77.40
2018-02-20T05:29:54.119Z,68.10
2018-02-20T05:32:21.521Z,75.27
2018-02-20T05:34:48.946Z,69.37
2018-02-20T05:37:16.354Z,79.47
2018-02-20T05:39:43.766Z,73.00
2018-02-20T05:42:11.181Z,68.27
2018-02-20T05:44:38.594Z,62.60
2018-02-20T05:47:06.005Z,68.57
2018-02-20T05:49:33.410Z,68.20
2018-02-20T05:52:00.820Z,79.73
2018-02-20T05:54:28.249Z,80.97
2018-02-20T05:56:55.657Z,78.27
2018-02-20T05:59:23.076Z,74.70
2018-02-20T06:01:50.494Z,69.50
2018-02-20T06:04:17.912Z,75.90
2018-02-20T06:06:45.346Z,69.15
2018-02-20T06:09:12.724Z,59.73
2018-02-20T06:11:40.140Z,61.50
2018-02-20T06:14:07.829Z,67.50
2018-02-20T06:16:35.225Z,60.77
2018-02-20T06:19:02.663Z,69.27
2018-02-20T06:21:30.061Z,63.47
2018-02-20T06:23:57.479Z,65.00
2018-02-20T06:26:24.892Z,70.10
2018-02-20T06:28:52.305Z,69.70
2018-02-20T06:31:19.721Z,71.70
2018-02-20T06:33:47.131Z,61.77
2018-02-20T06:36:14.544Z,69.00
2018-02-20T06:38:41.953Z,66.57
2018-02-20T06:41:09.374Z,63.90
2018-02-20T06:43:36.774Z,72.90
2018-02-20T06:46:04.197Z,70.12
2018-02-20T06:48:31.600Z,64.63
2018-02-20T06:50:59.016Z,67.90
2018-02-20T06:53:26.430Z,65.57
2018-02-20T06:55:53.851Z,62.70
2018-02-20T06:58:21.257Z,63.27
2018-02-20T07:00:48.676Z,68.57
2018-02-20T07:03:16.092Z,62.58
2018-02-20T07:05:43.514Z,71.67
2018-02-20T07:08:10.919Z,100.90
2018-02-20T07:10:38.340Z,62.30
2018-02-20T07:13:05.779Z,65.75
2018-02-20T07:15:33.186Z,58.50
2018-02-20T07:18:00.585Z,55.93
2018-02-20T07:20:28.001Z,64.33
2018-02-20T07:22:55.410Z,58.93
2018-02-20T07:25:22.821Z,61.13
2018-02-20T07:27:50.232Z,57.07
2018-02-20T07:30:17.645Z,59.60
2018-02-20T07:32:45.049Z,64.60
2018-02-20T07:35:12.464Z,70.93
2018-02-20T07:37:39.871Z,72.77
2018-02-20T07:40:07.297Z,61.20
2018-02-20T07:42:34.702Z,62.00
2018-02-20T07:45:02.117Z,66.30
2018-02-20T07:47:29.520Z,62.78
2018-02-20T07:49:56.942Z,56.63
2018-02-20T07:52:24.367Z,61.63
2018-02-20T07:54:51.780Z,67.60
2018-02-20T07:57:19.195Z,66.27
2018-02-20T07:59:46.617Z,76.03
2018-02-20T08:02:14.039Z,70.30
2018-02-20T08:04:41.444Z,54.10
2018-02-20T08:07:08.857Z,54.57
2018-02-20T08:09:36.271Z,64.90
2018-02-20T08:12:03.690Z,60.80
2018-02-20T08:14:31.107Z,66.83
2018-02-20T08:16:58.515Z,61.50
2018-02-20T08:19:25.928Z,52.93
2018-02-20T08:21:53.649Z,63.42
2018-02-20T08:24:21.060Z,52.60
2018-02-20T08:26:48.477Z,49.67
2018-02-20T08:29:15.887Z,52.75
2018-02-20T08:31:43.303Z,52.77
2018-02-20T08:34:10.708Z,47.33
2018-02-20T08:36:38.125Z,45.50
2018-02-20T08:39:05.539Z,55.50
2018-02-20T08:41:32.966Z,61.10
2018-02-20T08:44:00.379Z,63.30
2018-02-20T08:46:27.793Z,57.40
2018-02-20T08:48:55.225Z,55.33
2018-02-20T08:51:22.633Z,53.87
2018-02-20T08:53:50.042Z,60.33
2018-02-20T08:56:17.464Z,52.67
2018-02-20T08:58:44.872Z,54.13
2018-02-20T09:01:12.297Z,61.33
2018-02-20T09:03:39.712Z,57.33
2018-02-20T09:06:07.121Z,63.17
2018-02-20T09:08:34.534Z,55.40
2018-02-20T09:11:01.944Z,53.45
2018-02-20T09:13:29.358Z,53.30
2018-02-20T09:15:56.770Z,55.57
2018-02-20T09:18:24.177Z,55.90
2018-02-20T09:20:51.600Z,60.00
2018-02-20T09:23:19.003Z,62.03
2018-02-20T09:25:46.422Z,54.78
2018-02-20T09:28:13.831Z,56.37
2018-02-20T09:30:41.237Z,58.87
2018-02-20T09:33:08.651Z,44.17
2018-02-20T09:35:36.050Z,46.03
2018-02-20T09:38:03.471Z,46.13
2018-02-20T09:40:30.883Z,48.37
2018-02-20T09:42:58.294Z,56.57
2018-02-20T09:45:26.072Z,53.20
2018-02-20T09:47:53.491Z,44.30
2018-02-20T09:50:21.462Z,42.07
2018-02-20T09:52:48.869Z,46.97
2018-02-20T09:55:16.285Z,48.67
2018-02-20T09:57:43.692Z,46.07
2018-02-20T10:00:11.101Z,53.83
2018-02-20T10:02:38.530Z,39.37
2018-02-20T10:05:05.933Z,49.47
2018-02-20T10:07:33.352Z,53.00
2018-02-20T10:10:00.754Z,44.80
2018-02-20T10:12:28.165Z,48.83
2018-02-20T10:14:55.568Z,45.50
2018-02-20T10:17:22.996Z,39.20
2018-02-20T10:19:50.400Z,37.77
2018-02-20T10:22:17.820Z,42.37
2018-02-20T10:24:45.228Z,39.30
2018-02-20T10:27:12.636Z,42.30
2018-02-20T10:29:40.901Z,36.22
2018-02-20T10:32:08.345Z,35.03
2018-02-20T10:34:35.724Z,36.03
2018-02-20T10:37:03.136Z,35.13
2018-02-20T10:39:30.586Z,30.43
2018-02-20T10:41:58.075Z,35.87
2018-02-20T10:44:25.475Z,34.97
2018-02-20T10:46:52.890Z,30.20
2018-02-20T10:49:20.298Z,33.13
2018-02-20T10:51:47.712Z,33.53
2018-02-20T10:54:15.122Z,33.03
2018-02-20T10:56:42.529Z,28.63
2018-02-20T10:59:09.945Z,33.95
2018-02-20T11:01:37.387Z,35.87
2018-02-20T11:04:04.775Z,33.63
2018-02-20T11:06:32.181Z,33.08
2018-02-20T11:08:59.597Z,35.73
2018-02-20T11:11:27.001Z,39.63
2018-02-20T11:13:54.421Z,33.47
2018-02-20T11:16:21.825Z,31.17
2018-02-20T11:18:49.231Z,32.83
2018-02-20T11:21:16.636Z,37.87
2018-02-20T11:23:44.044Z,37.03
2018-02-20T11:26:11.449Z,36.80
2018-02-20T11:28:38.865Z,35.40
2018-02-20T11:31:06.272Z,36.55
2018-02-20T11:33:33.690Z,38.07
2018-02-20T11:36:01.090Z,42.50
2018-02-20T11:38:28.504Z,41.40
2018-02-20T11:40:56.467Z,40.20
2018-02-20T11:43:23.877Z,41.90
2018-02-20T11:45:51.278Z,38.70
2018-02-20T11:48:18.693Z,38.53
2018-02-20T11:50:46.149Z,41.88
2018-02-20T11:53:13.556Z,43.13
2018-02-20T11:55:40.964Z,45.70
2018-02-20T11:58:08.377Z,44.33
2018-02-20T12:00:35.782Z,44.63
2018-02-20T12:03:03.197Z,45.60
2018-02-20T12:05:30.649Z,39.10
2018-02-20T12:07:58.070Z,45.43
2018-02-20T12:10:25.476Z,49.47
2018-02-20T12:12:52.888Z,43.07
2018-02-20T12:15:20.298Z,48.13
2018-02-20T12:17:47.718Z,47.80
2018-02-20T12:20:15.142Z,45.00
2018-02-20T12:22:43.105Z,45.70
2018-02-20T12:25:10.496Z,44.80
2018-02-20T12:27:37.915Z,50.47
2018-02-20T12:30:05.313Z,37.50
2018-02-20T12:32:32.713Z,45.00
2018-02-20T12:35:00.130Z,39.00
2018-02-20T12:37:28.209Z,43.33
2018-02-20T12:39:55.628Z,41.57
2018-02-20T12:42:23.030Z,38.77
2018-02-20T12:44:50.445Z,42.23
2018-02-20T12:47:17.849Z,46.30
2018-02-20T12:49:45.261Z,42.10
2018-02-20T12:52:12.666Z,37.43
2018-02-20T12:54:40.081Z,39.27
2018-02-20T12:57:07.486Z,49.47
2018-02-20T13:02:08.599Z,44.33
2018-02-20T13:04:36.007Z,38.60
2018-02-20T13:07:03.406Z,42.90
2018-02-20T13:09:30.840Z,49.10
2018-02-20T13:11:58.235Z,43.23
2018-02-20T13:14:25.648Z,43.60
2018-02-20T13:16:53.072Z,50.10
2018-02-20T13:19:20.489Z,40.70
2018-02-20T13:21:47.884Z,48.33
2018-02-20T13:24:15.317Z,43.55
2018-02-20T13:26:42.726Z,39.30
2018-02-20T13:29:10.137Z,50.47
2018-02-20T13:31:37.544Z,45.78
2018-02-20T13:34:04.960Z,46.37
2018-02-20T13:36:32.396Z,50.00
2018-02-20T13:38:59.808Z,45.88
2018-02-20T13:41:27.205Z,48.10
2018-02-20T13:43:54.622Z,49.40
2018-02-20T13:46:22.028Z,43.67
2018-02-20T13:48:49.446Z,42.13
2018-02-20T13:51:16.843Z,50.63
2018-02-20T13:53:44.261Z,45.83
2018-02-20T13:56:11.660Z,43.83
2018-02-20T13:58:39.076Z,40.97
2018-02-20T14:01:06.469Z,47.97
2018-02-20T14:03:34.872Z,41.80
2018-02-20T14:06:02.222Z,40.90
2018-02-20T14:08:29.630Z,44.17
2018-02-20T14:10:57.037Z,36.87
2018-02-20T14:13:24.462Z,37.20
2018-02-20T14:15:51.882Z,37.13
2018-02-20T14:18:19.287Z,47.73
2018-02-20T14:20:46.704Z,39.97
2018-02-20T14:23:14.096Z,39.80
2018-02-20T14:25:41.516Z,35.47
2018-02-20T14:28:08.922Z,33.20
2018-02-20T14:30:36.335Z,29.47
2018-02-20T14:33:03.736Z,32.33
2018-02-20T14:35:31.141Z,34.60
2018-02-20T14:37:58.550Z,36.87
2018-02-20T14:40:25.969Z,42.33
2018-02-20T14:42:53.367Z,37.00
2018-02-20T14:45:20.777Z,35.30
2018-02-20T14:47:48.182Z,36.80
2018-02-20T14:50:15.594Z,40.53
2018-02-20T14:52:42.996Z,43.70
2018-02-20T14:55:10.410Z,36.63
2018-02-20T14:57:37.814Z,40.20
2018-02-20T15:00:05.235Z,39.37
2018-02-20T15:02:32.633Z,46.23
2018-02-20T15:05:00.048Z,43.67
2018-02-20T15:07:27.445Z,43.87
2018-02-20T15:09:54.860Z,53.10
2018-02-20T15:12:22.258Z,45.20
2018-02-20T15:14:49.673Z,41.30
2018-02-20T15:17:17.077Z,45.53
2018-02-20T15:19:44.489Z,42.60
2018-02-20T15:22:11.892Z,45.40
2018-02-20T15:24:39.313Z,43.10
2018-02-20T15:27:06.720Z,44.00
2018-02-20T15:29:34.134Z,51.22
2018-02-20T15:32:01.543Z,52.43
2018-02-20T15:34:28.956Z,49.37
2018-02-20T15:36:56.371Z,51.60
2018-02-20T15:39:23.771Z,47.10
2018-02-20T15:41:51.183Z,43.93
2018-02-20T15:44:18.593Z,47.17
2018-02-20T15:46:46.006Z,50.43
2018-02-20T15:49:13.401Z,48.87
2018-02-20T15:51:40.818Z,50.87
2018-02-20T15:54:09.250Z,55.20
2018-02-20T15:56:36.700Z,57.03
2018-02-20T15:59:04.056Z,49.93
2018-02-20T16:01:31.463Z,51.13
2018-02-20T16:03:58.864Z,51.53
2018-02-20T16:06:26.273Z,47.47
2018-02-20T16:08:53.703Z,58.00
2018-02-20T16:11:21.144Z,49.40
2018-02-20T16:13:48.559Z,59.03
2018-02-20T16:16:16.377Z,60.78
2018-02-20T16:18:43.786Z,59.60
2018-02-20T16:21:11.198Z,53.20
2018-02-20T16:23:38.604Z,56.23
2018-02-20T16:26:06.013Z,60.30
2018-02-20T16:28:33.412Z,50.90
2018-02-20T16:31:00.830Z,51.37
2018-02-20T16:33:28.229Z,50.30
2018-02-20T16:35:55.649Z,45.87
2018-02-20T16:38:23.062Z,39.77
2018-02-20T16:40:50.468Z,45.50
2018-02-20T16:43:17.874Z,46.17
2018-02-20T16:45:45.285Z,51.55
2018-02-20T16:48:13.223Z,53.20
2018-02-20T16:50:41.614Z,56.08
2018-02-20T16:53:09.015Z,44.70
2018-02-20T16:55:36.428Z,50.87
2018-02-20T16:58:03.837Z,46.10
2018-02-20T17:00:31.249Z,46.77
2018-02-20T17:02:58.672Z,45.40
2018-02-20T17:05:26.073Z,49.90
2018-02-20T17:07:53.476Z,42.93
2018-02-20T17:10:20.918Z,50.63
2018-02-20T17:12:48.309Z,51.70
2018-02-20T17:15:15.714Z,53.43
2018-02-20T17:17:43.125Z,48.57
2018-02-20T17:20:10.586Z,56.30
2018-02-20T17:22:37.993Z,47.57
2018-02-20T17:25:05.394Z,50.57
2018-02-20T17:27:32.802Z,55.33
2018-02-20T17:30:00.218Z,49.05
2018-02-20T17:32:27.645Z,59.03
2018-02-20T17:34:55.042Z,58.83
2018-02-20T17:37:22.453Z,50.57
2018-02-20T17:39:49.862Z,49.93
2018-02-20T17:42:17.271Z,52.57
2018-02-20T17:44:44.677Z,50.57
2018-02-20T17:47:12.101Z,53.58
2018-02-20T17:49:39.492Z,58.40
2018-02-20T17:52:06.906Z,50.30
2018-02-20T17:54:34.308Z,51.85
2018-02-20T17:57:01.725Z,56.43
2018-02-20T17:59:29.127Z,51.97
2018-02-20T18:01:56.532Z,52.37
2018-02-20T18:04:23.932Z,59.10
2018-02-20T18:06:51.351Z,53.37
2018-02-20T18:09:18.752Z,64.60
2018-02-20T18:11:46.163Z,57.60
2018-02-20T18:14:13.574Z,59.97
2018-02-20T18:16:40.974Z,55.43
2018-02-20T18:19:08.375Z,52.03
2018-02-20T18:21:35.787Z,58.53
2018-02-20T18:24:03.180Z,54.07
2018-02-20T18:26:30.593Z,58.20
2018-02-20T18:28:57.996Z,62.45
2018-02-20T18:31:25.409Z,61.70
2018-02-20T18:33:52.818Z,56.80
2018-02-20T18:36:20.229Z,59.03
2018-02-20T18:38:47.627Z,60.50
2018-02-20T18:41:15.033Z,60.77
2018-02-20T18:43:42.441Z,61.60
2018-02-20T18:46:09.850Z,59.27
2018-02-20T18:51:10.944Z,69.00
2018-02-20T18:53:38.365Z,68.80
2018-02-20T18:56:05.773Z,58.50
2018-02-20T18:58:33.184Z,65.50
2018-02-20T19:01:00.599Z,52.55
2018-02-20T19:03:28.005Z,71.37
2018-02-20T19:05:56.022Z,72.50
2018-02-20T19:08:23.424Z,66.30
2018-02-20T19:10:50.826Z,72.30
2018-02-20T19:13:18.809Z,73.35
2018-02-20T19:15:46.208Z,70.75
2018-02-20T19:18:13.630Z,69.20
2018-02-20T19:20:41.041Z,69.33
2018-02-20T19:23:08.461Z,64.17
2018-02-20T19:25:35.864Z,65.28
2018-02-20T19:28:03.529Z,63.97
2018-02-20T19:30:30.929Z,61.13
2018-02-20T19:32:58.346Z,71.20
2018-02-20T19:35:25.744Z,68.73
2018-02-20T19:37:53.166Z,62.20
2018-02-20T19:40:20.957Z,67.85
2018-02-20T19:42:48.376Z,63.67
2018-02-20T19:45:15.780Z,70.68
2018-02-20T19:47:43.202Z,73.03
2018-02-20T19:50:10.608Z,68.10
2018-02-20T19:52:38.026Z,65.23
2018-02-20T19:55:05.433Z,69.18
2018-02-20T19:57:32.851Z,70.73
2018-02-20T20:00:00.717Z,69.57
2018-02-20T20:02:28.140Z,77.83
2018-02-20T20:04:55.836Z,72.87
2018-02-20T20:07:23.253Z,68.10
2018-02-20T20:09:51.406Z,70.93
2018-02-20T20:12:18.820Z,67.30
2018-02-20T20:14:46.228Z,66.70
2018-02-20T20:17:14.229Z,70.43
2018-02-20T20:19:41.633Z,59.83
2018-02-20T20:22:09.070Z,68.63
2018-02-20T20:24:36.500Z,69.07
2018-02-20T20:27:03.867Z,63.63
2018-02-20T20:29:31.281Z,62.30
2018-02-20T20:31:58.685Z,61.33
2018-02-20T20:34:26.104Z,66.03
2018-02-20T20:36:53.509Z,59.43
2018-02-20T20:39:21.717Z,67.10
2018-02-20T20:41:49.125Z,64.83
2018-02-20T20:44:16.520Z,57.60
2018-02-20T20:46:43.925Z,64.57
2018-02-20T20:49:11.518Z,56.73
2018-02-20T20:51:39.228Z,66.87
2018-02-20T20:54:06.649Z,66.87
2018-02-20T20:56:34.049Z,71.12
2018-02-20T20:59:02.463Z,75.53
2018-02-20T21:01:29.869Z,65.90
2018-02-20T21:03:57.285Z,64.20
2018-02-20T21:06:24.685Z,64.90
2018-02-20T21:08:52.315Z,65.50
2018-02-20T21:11:19.708Z,67.07
2018-02-20T21:13:47.127Z,65.63
2018-02-20T21:16:14.533Z,70.12
2018-02-20T21:18:41.951Z,61.03
2018-02-20T21:21:09.352Z,75.57
2018-02-20T21:23:36.770Z,73.60
2018-02-20T21:26:05.017Z,80.97
2018-02-20T21:28:32.430Z,78.97
2018-02-20T21:30:59.835Z,74.07
2018-02-20T21:33:27.263Z,76.23
2018-02-20T21:35:54.669Z,70.00
2018-02-20T21:38:22.086Z,67.82
2018-02-20T21:40:49.498Z,64.30
2018-02-20T21:43:16.909Z,69.60
2018-02-20T21:45:44.317Z,73.65
2018-02-20T21:48:11.935Z,64.93
2018-02-20T21:50:39.341Z,75.15
2018-02-20T21:53:06.758Z,64.67
2018-02-20T21:55:34.165Z,80.33
2018-02-20T21:58:01.570Z,82.80
2018-02-20T22:02:39.848Z,79.25
2018-02-20T22:05:07.256Z,82.70
2018-02-20T22:07:34.672Z,75.27
2018-02-20T22:10:02.096Z,87.37
2018-02-20T22:12:29.503Z,86.33
2018-02-20T22:14:56.929Z,76.07
2018-02-20T22:17:25.378Z,66.85
2018-02-20T22:19:52.799Z,69.53
2018-02-20T22:22:20.202Z,75.90
2018-02-20T22:24:47.618Z,69.40
2018-02-20T22:27:15.021Z,85.43
2018-02-20T22:29:42.445Z,88.30
2018-02-20T22:32:09.856Z,82.73
2018-02-20T22:34:37.268Z,80.10
2018-02-20T22:37:04.682Z,83.47
2018-02-20T22:39:32.107Z,89.40
2018-02-20T22:41:59.506Z,85.60
2018-02-20T22:44:26.920Z,68.93
2018-02-20T22:46:54.332Z,87.83
2018-02-20T22:49:21.759Z,83.23
2018-02-20T22:51:49.167Z,76.80
2018-02-20T22:54:16.586Z,76.57
2018-02-20T22:56:43.993Z,70.70
2018-02-20T22:59:11.409Z,78.93
2018-02-20T23:01:38.814Z,80.03
2018-02-20T23:04:06.229Z,71.50
2018-02-20T23:06:33.637Z,74.90
2018-02-20T23:09:01.059Z,72.00
2018-02-20T23:11:40.144Z,69.40
2018-02-20T23:14:07.561Z,85.10
2018-02-20T23:16:34.982Z,74.63
2018-02-20T23:19:02.406Z,70.93
2018-02-20T23:21:29.812Z,67.33
2018-02-20T23:23:57.281Z,63.83
2018-02-20T23:26:24.704Z,65.97
2018-02-20T23:28:52.110Z,66.10
2018-02-20T23:31:19.525Z,69.03
2018-02-20T23:33:46.936Z,61.50
2018-02-20T23:36:14.357Z,60.90
2018-02-20T23:38:41.769Z,75.33
2018-02-20T23:41:09.198Z,76.13
2018-02-20T23:43:36.609Z,72.78
2018-02-20T23:46:04.021Z,67.37
2018-02-20T23:48:31.430Z,67.53
2018-02-20T23:51:04.581Z,75.25
2018-02-20T23:53:32.236Z,68.32
2018-02-20T23:55:59.656Z,74.60
2018-02-20T23:58:27.061Z,72.70
